Time;durP1;ratioP1;P1;durP2;ratioP2;P2;SDS_P1;SDS_P2;PMS_P1;PMS_P2;Temp;Humidity;BMP_temperature;BMP_pressure;BME280_temperature;BME280_humidity;BME280_pressure;Samples;Min_cycle;Max_cycle;Signal;HPM_P1;HPM_P2
2022/03/20 00:02:17;;;;;;;6.95;1.67;;;24.30;99.80;;;;;;5047031;28;20032;-70
2022/03/20 00:04:44;;;;;;;8.98;1.75;;;24.30;99.90;;;;;;5047729;28;20061;-69
2022/03/20 00:07:11;;;;;;;7.18;1.60;;;24.60;99.10;;;;;;5046178;28;20017;-64
2022/03/20 00:09:38;;;;;;;10.45;2.22;;;24.80;99.60;;;;;;5046585;28;20048;-68
2022/03/20 00:12:06;;;;;;;6.45;1.67;;;24.90;99.50;;;;;;5045246;28;20067;-69
2022/03/20 00:14:33;;;;;;;7.10;1.83;;;24.80;98.20;;;;;;5046757;28;20406;-67
2022/03/20 00:17:00;;;;;;;4.10;1.88;;;24.90;98.80;;;;;;5043883;28;20032;-68
2022/03/20 00:19:27;;;;;;;7.88;2.13;;;25.00;98.20;;;;;;5050404;28;20070;-68
2022/03/20 00:21:55;;;;;;;7.32;1.75;;;25.00;98.60;;;;;;5045376;28;20033;-69
2022/03/20 00:24:22;;;;;;;11.10;2.40;;;25.20;97.30;;;;;;5047635;28;20541;-71
2022/03/20 00:26:56;;;;;;;5.50;1.52;;;25.20;98.10;;;;;;5045247;28;20017;-71
2022/03/20 00:29:25;;;;;;;6.85;1.90;;;25.30;97.90;;;;;;5044320;28;20937;-68
2022/03/20 00:31:53;;;;;;;5.32;1.83;;;25.30;97.40;;;;;;5045530;28;20442;-67
2022/03/20 00:34:20;;;;;;;9.52;2.40;;;25.20;97.30;;;;;;5045123;28;20025;-68
2022/03/20 00:36:47;;;;;;;8.13;2.22;;;25.40;97.20;;;;;;5047207;28;20471;-67
2022/03/20 00:39:14;;;;;;;8.48;1.98;;;25.60;97.30;;;;;;5045891;28;20366;-67
2022/03/20 00:41:41;;;;;;;6.38;1.38;;;25.80;96.00;;;;;;5047179;28;20021;-69
2022/03/20 00:44:08;;;;;;;4.88;1.70;;;25.70;96.20;;;;;;5047979;28;20016;-70
2022/03/20 00:46:35;;;;;;;6.65;1.98;;;25.80;97.40;;;;;;5046561;28;20024;-68
2022/03/20 00:49:02;;;;;;;6.40;1.40;;;26.00;97.20;;;;;;5044438;28;20483;-69
2022/03/20 00:51:29;;;;;;;4.30;1.80;;;26.30;96.70;;;;;;5046326;28;20059;-69
2022/03/20 00:53:56;;;;;;;4.30;1.45;;;26.20;95.60;;;;;;5042896;28;20029;-69
2022/03/20 00:56:23;;;;;;;5.63;1.73;;;26.20;96.40;;;;;;5043965;28;20429;-69
2022/03/20 00:58:50;;;;;;;6.18;1.75;;;26.20;96.00;;;;;;5026530;28;20060;-68
2022/03/20 01:01:17;;;;;;;6.00;1.70;;;26.60;95.80;;;;;;5038617;28;20033;-71
2022/03/20 01:03:45;;;;;;;5.40;1.38;;;26.70;95.80;;;;;;5043803;28;20033;-70
2022/03/20 01:06:12;;;;;;;8.93;2.22;;;26.90;94.80;;;;;;5042298;28;20112;-69
2022/03/20 01:08:40;;;;;;;5.03;1.73;;;27.10;95.00;;;;;;5043595;28;20138;-70
2022/03/20 01:11:08;;;;;;;5.25;1.40;;;27.30;95.30;;;;;;5043741;28;20021;-71
2022/03/20 01:13:35;;;;;;;4.55;1.75;;;27.40;95.00;;;;;;5044994;28;20163;-68
2022/03/20 01:16:04;;;;;;;4.30;1.45;;;27.20;94.00;;;;;;5044908;28;20020;-67
2022/03/20 01:18:31;;;;;;;7.10;1.77;;;27.10;94.60;;;;;;5041845;28;20147;-68
2022/03/20 01:20:58;;;;;;;4.85;1.77;;;27.10;94.90;;;;;;5043680;28;20503;-67
2022/03/20 01:23:25;;;;;;;5.80;1.98;;;27.10;93.20;;;;;;5043874;28;20108;-67
2022/03/20 01:25:52;;;;;;;6.32;1.65;;;27.10;93.40;;;;;;5042905;28;20026;-67
2022/03/20 01:28:20;;;;;;;3.55;1.50;;;26.90;93.90;;;;;;5042536;28;20039;-69
2022/03/20 01:30:48;;;;;;;7.85;1.63;;;27.00;95.00;;;;;;5043473;28;20029;-66
2022/03/20 01:33:16;;;;;;;4.57;1.50;;;27.40;94.40;;;;;;5043998;28;20486;-70
2022/03/20 01:35:43;;;;;;;3.55;1.40;;;27.70;93.80;;;;;;5044982;28;20067;-66
2022/03/20 01:38:10;;;;;;;5.20;1.52;;;27.80;93.50;;;;;;5042547;28;20034;-66
2022/03/20 01:40:37;;;;;;;6.25;1.70;;;28.00;93.10;;;;;;5048138;28;20047;-66
2022/03/20 01:43:04;;;;;;;5.25;1.92;;;27.80;92.80;;;;;;5048470;28;20037;-65
2022/03/20 01:45:31;;;;;;;6.38;1.80;;;27.90;91.70;;;;;;5046517;28;20032;-66
2022/03/20 01:47:58;;;;;;;4.65;1.40;;;28.00;93.10;;;;;;5047107;28;20025;-67
2022/03/20 01:50:27;;;;;;;7.05;2.00;;;28.00;92.70;;;;;;5047059;28;20075;-68
2022/03/20 01:52:57;;;;;;;5.65;2.00;;;28.20;92.10;;;;;;5047499;28;20029;-69
2022/03/20 01:55:24;;;;;;;5.60;1.63;;;28.00;93.10;;;;;;5046994;28;20560;-64
2022/03/20 01:57:54;;;;;;;5.22;1.90;;;28.20;92.70;;;;;;5047701;28;20105;-66
2022/03/20 02:00:24;;;;;;;6.85;1.77;;;28.60;92.20;;;;;;5045940;28;20037;-65
2022/03/20 02:02:52;;;;;;;6.10;1.85;;;28.80;93.20;;;;;;5045969;28;20517;-65
2022/03/20 02:05:19;;;;;;;4.95;1.48;;;28.80;92.20;;;;;;5045447;28;20029;-65
2022/03/20 02:07:47;;;;;;;5.03;2.22;;;28.70;91.10;;;;;;5045763;28;20048;-66
2022/03/20 02:10:15;;;;;;;6.50;1.73;;;28.30;91.90;;;;;;5047834;28;20122;-68
2022/03/20 02:12:42;;;;;;;5.70;1.77;;;28.40;91.90;;;;;;5046964;28;20526;-65
2022/03/20 02:15:14;;;;;;;5.75;1.73;;;28.50;90.90;;;;;;5045993;28;20112;-67
2022/03/20 02:17:45;;;;;;;4.38;1.45;;;28.50;91.20;;;;;;5046067;28;20039;-67
2022/03/20 02:20:12;;;;;;;4.93;1.52;;;28.40;90.90;;;;;;5044934;28;20404;-67
2022/03/20 02:22:45;;;;;;;4.93;1.58;;;28.10;91.30;;;;;;5045290;28;20033;-66
2022/03/20 02:25:15;;;;;;;7.65;1.75;;;28.10;92.20;;;;;;5046587;28;20484;-67
2022/03/20 02:27:44;;;;;;;6.95;1.50;;;28.30;90.90;;;;;;5050451;28;20032;-68
2022/03/20 02:30:14;;;;;;;5.68;1.75;;;28.50;91.90;;;;;;5050271;28;20028;-66
2022/03/20 02:32:46;;;;;;;6.30;1.92;;;28.80;91.00;;;;;;5046771;28;20107;-68
2022/03/20 02:35:15;;;;;;;4.72;1.38;;;29.00;91.40;;;;;;5050995;28;20036;-68
2022/03/20 02:37:45;;;;;;;5.80;1.70;;;29.30;91.30;;;;;;5053457;28;20104;-66
2022/03/20 02:40:13;;;;;;;4.70;1.65;;;29.70;89.50;;;;;;5049865;28;20036;-68
2022/03/20 02:42:42;;;;;;;5.00;1.58;;;29.50;89.70;;;;;;5050210;28;20162;-66
2022/03/20 02:45:15;;;;;;;5.25;1.50;;;29.30;86.90;;;;;;5049236;28;20112;-67
2022/03/20 02:47:44;;;;;;;3.45;1.23;;;29.10;87.50;;;;;;5032194;28;20123;-68
2022/03/20 02:50:17;;;;;;;3.40;1.30;;;29.30;87.40;;;;;;5050453;28;20028;-66
2022/03/20 02:52:48;;;;;;;4.93;1.40;;;29.60;89.00;;;;;;5050224;28;20094;-68
2022/03/20 02:55:19;;;;;;;4.57;1.45;;;29.90;87.80;;;;;;5049680;28;20112;-66
2022/03/20 02:57:47;;;;;;;4.30;1.60;;;30.20;89.30;;;;;;5046758;28;20039;-65
2022/03/20 03:00:17;;;;;;;4.43;1.75;;;30.40;89.80;;;;;;5045162;28;20475;-67
2022/03/20 03:02:45;;;;;;;4.47;1.60;;;30.80;87.70;;;;;;5049836;28;20021;-66
2022/03/20 03:05:16;;;;;;;8.35;1.70;;;30.90;83.60;;;;;;5049643;28;20033;-68
2022/03/20 03:13:17;;;;;;;4.20;1.63;;;30.80;84.40;;;;;;5049358;28;20083;-66
2022/03/20 03:15:44;;;;;;;6.40;1.70;;;30.60;84.10;;;;;;5030341;28;20025;-63
2022/03/20 03:18:12;;;;;;;7.82;1.60;;;30.60;84.00;;;;;;5049755;28;20025;-66
2022/03/20 03:20:40;;;;;;;4.78;1.65;;;30.70;83.90;;;;;;5052668;28;20930;-66
2022/03/20 03:23:07;;;;;;;5.80;1.52;;;30.90;84.90;;;;;;5050241;28;20116;-66
2022/03/20 03:25:40;;;;;;;5.53;1.77;;;30.90;84.10;;;;;;5049453;28;20025;-67
2022/03/20 03:28:11;;;;;;;5.22;1.90;;;31.00;85.20;;;;;;5050632;28;20040;-66
2022/03/20 03:30:44;;;;;;;3.73;1.50;;;31.20;84.30;;;;;;5046936;28;20377;-66
2022/03/20 03:33:13;;;;;;;3.95;1.85;;;31.50;82.80;;;;;;5030067;28;20045;-66
2022/03/20 03:35:43;;;;;;;5.35;1.83;;;31.70;81.30;;;;;;5048926;28;20029;-67
2022/03/20 03:38:18;;;;;;;4.50;1.63;;;31.50;79.30;;;;;;5048372;28;20029;-69
2022/03/20 03:40:47;;;;;;;4.55;1.85;;;31.10;81.10;;;;;;5048409;28;20414;-69
2022/03/20 03:43:17;;;;;;;3.30;1.10;;;31.10;79.10;;;;;;5049462;28;20116;-68
2022/03/20 03:45:44;;;;;;;5.95;1.55;;;31.10;78.00;;;;;;5047986;28;20044;-69
2022/03/20 03:48:12;;;;;;;3.58;1.38;;;31.00;78.00;;;;;;5049250;28;20032;-69
2022/03/20 03:50:41;;;;;;;5.25;1.45;;;30.80;81.70;;;;;;5048398;28;20029;-67
2022/03/20 03:53:12;;;;;;;3.45;1.25;;;30.90;78.90;;;;;;5045868;28;20051;-69
2022/03/20 03:55:44;;;;;;;4.93;1.35;;;30.80;80.80;;;;;;5047648;28;20025;-69
2022/03/20 03:58:13;;;;;;;4.07;1.50;;;31.00;80.60;;;;;;5046082;28;20703;-66
2022/03/20 04:00:41;;;;;;;4.53;1.38;;;31.20;78.70;;;;;;5048138;28;20399;-68
2022/03/20 04:03:08;;;;;;;5.68;1.33;;;31.10;78.30;;;;;;5048947;28;20028;-66
2022/03/20 04:05:35;;;;;;;6.20;1.58;;;30.90;78.70;;;;;;5046690;28;20024;-64
2022/03/20 04:08:05;;;;;;;4.10;1.45;;;30.90;81.50;;;;;;5046768;28;20025;-68
2022/03/20 04:10:32;;;;;;;3.65;1.65;;;30.90;78.40;;;;;;5046687;28;20333;-67
2022/03/20 04:12:59;;;;;;;2.00;1.03;;;30.90;80.70;;;;;;4350240;28;10021565;-69
2022/03/20 04:15:26;;;;;;;4.75;1.70;;;31.10;79.00;;;;;;5045590;28;20757;-66
2022/03/20 04:17:54;;;;;;;4.18;1.35;;;31.00;79.80;;;;;;5042317;28;20599;-69
2022/03/20 04:20:22;;;;;;;5.32;1.52;;;31.10;79.00;;;;;;5041907;28;20124;-69
2022/03/20 04:25:39;;;;;;;5.25;1.65;;;31.00;80.50;;;;;;5041311;28;20517;-67
2022/03/20 04:28:05;;;;;;;4.23;1.87;;;31.20;77.90;;;;;;5039053;28;20036;-70
2022/03/20 04:30:34;;;;;;;6.18;1.58;;;31.20;78.50;;;;;;5039926;28;20012;-67
2022/03/20 04:33:01;;;;;;;6.80;1.25;;;31.20;79.70;;;;;;5040109;28;20067;-67
2022/03/20 04:35:28;;;;;;;3.95;1.35;;;31.30;80.00;;;;;;5034503;28;20389;-66
2022/03/20 04:37:56;;;;;;;4.90;1.45;;;31.40;79.30;;;;;;5031922;28;20500;-66
2022/03/20 04:40:23;;;;;;;6.47;2.22;;;31.40;78.70;;;;;;5039937;28;20043;-65
2022/03/20 04:42:50;;;;;;;5.47;1.27;;;31.30;77.70;;;;;;5041291;28;20032;-67
2022/03/20 04:45:18;;;;;;;4.43;1.58;;;31.10;76.50;;;;;;5042745;28;20037;-68
2022/03/20 04:58:46;;;;;;;3.97;1.40;;;31.30;77.70;;;;;;5046795;28;20114;-68
2022/03/20 05:01:14;;;;;;;5.47;1.80;;;31.40;77.60;;;;;;5046654;28;20079;-66
2022/03/20 05:03:41;;;;;;;4.72;2.00;;;31.40;80.40;;;;;;5046849;28;20044;-67
2022/03/20 05:06:08;;;;;;;4.82;2.30;;;31.20;78.00;;;;;;5045759;28;20285;-67
2022/03/20 05:08:39;;;;;;;3.45;1.35;;;31.30;78.80;;;;;;5045162;28;20360;-66
2022/03/20 05:13:51;;;;;;;5.57;1.70;;;31.50;77.70;;;;;;5044365;28;20036;-68
2022/03/20 05:16:18;;;;;;;3.50;1.48;;;31.80;77.20;;;;;;5043877;28;20044;-66
2022/03/20 05:18:46;;;;;;;6.72;1.70;;;31.80;76.80;;;;;;5046256;28;20035;-67
2022/03/20 05:21:13;;;;;;;8.10;2.08;;;31.80;77.00;;;;;;5046818;28;20427;-68
2022/03/20 05:23:40;;;;;;;6.25;1.73;;;32.00;76.30;;;;;;5043891;28;20073;-68
2022/03/20 05:26:07;;;;;;;7.13;1.88;;;31.60;76.20;;;;;;5044570;28;20025;-70
2022/03/20 05:28:34;;;;;;;5.22;1.90;;;31.40;76.40;;;;;;5045034;28;20438;-69
2022/03/20 05:31:03;;;;;;;5.53;1.88;;;31.40;78.50;;;;;;5044858;28;20096;-68
2022/03/20 05:33:31;;;;;;;4.45;1.75;;;31.10;79.60;;;;;;5043091;28;20100;-67
2022/03/20 05:35:58;;;;;;;4.60;1.90;;;31.00;80.50;;;;;;5045323;28;20029;-69
2022/03/20 05:38:25;;;;;;;6.45;1.90;;;31.10;80.70;;;;;;5044470;28;20485;-68
2022/03/20 05:41:43;;;;;;;8.73;2.38;;;31.20;79.90;;;;;;5044045;28;20041;-69
2022/03/20 05:43:39;;;;;;;9.10;2.53;;;30.90;82.10;;;;;;5045772;28;20059;-69
2022/03/20 05:46:06;;;;;;;8.55;2.25;;;30.50;84.30;;;;;;5044348;28;20094;-68
2022/03/20 05:48:35;;;;;;;9.43;2.92;;;30.50;85.50;;;;;;5044925;28;20028;-66
2022/03/20 05:51:02;;;;;;;8.38;2.28;;;30.10;85.90;;;;;;5045075;28;20358;-66
2022/03/20 05:53:29;;;;;;;8.45;2.25;;;29.90;87.40;;;;;;5042999;28;20036;-68
2022/03/20 05:58:42;;;;;;;7.65;2.60;;;29.70;88.50;;;;;;5039510;28;20078;-70
2022/03/20 06:01:09;;;;;;;9.23;2.28;;;29.60;88.10;;;;;;5042197;28;20028;-68
2022/03/20 06:03:36;;;;;;;5.82;2.38;;;29.30;89.70;;;;;;5043976;28;20037;-70
2022/03/20 06:06:07;;;;;;;5.75;2.15;;;29.20;90.40;;;;;;5041481;28;20372;-67
2022/03/20 06:08:35;;;;;;;6.80;2.90;;;29.20;89.90;;;;;;5040477;28;20577;-67
2022/03/20 06:11:02;;;;;;;5.57;1.90;;;29.00;90.40;;;;;;5041551;28;20417;-68
2022/03/20 06:13:31;;;;;;;9.05;2.67;;;28.60;90.70;;;;;;5042114;28;20086;-67
2022/03/20 06:15:58;;;;;;;4.53;1.65;;;28.50;90.50;;;;;;5042942;28;20127;-69
2022/03/20 06:18:28;;;;;;;7.88;2.00;;;28.50;91.30;;;;;;5021201;28;20732;-68
2022/03/20 06:20:57;;;;;;;8.75;2.70;;;28.60;91.20;;;;;;5041569;28;20424;-69
2022/03/20 06:23:24;;;;;;;9.27;2.30;;;28.70;91.40;;;;;;5042818;28;20051;-68
2022/03/20 06:25:52;;;;;;;6.70;1.98;;;28.70;91.60;;;;;;5040108;28;20029;-67
2022/03/20 06:28:22;;;;;;;8.30;2.30;;;28.80;91.90;;;;;;5043168;28;20048;-69
2022/03/20 06:30:49;;;;;;;7.43;2.10;;;29.00;91.80;;;;;;5043815;28;20472;-68
2022/03/20 06:33:16;;;;;;;9.65;2.30;;;29.30;91.60;;;;;;5041601;28;20056;-67
2022/03/20 06:35:43;;;;;;;8.30;2.33;;;29.10;91.30;;;;;;5043170;28;20028;-66
2022/03/20 06:38:10;;;;;;;7.00;2.20;;;28.80;92.00;;;;;;5043287;28;20032;-67
2022/03/20 06:40:37;;;;;;;7.13;2.90;;;28.90;92.10;;;;;;5042111;28;20052;-68
2022/03/20 06:43:06;;;;;;;6.25;2.30;;;29.30;92.40;;;;;;5041198;28;20039;-67
2022/03/20 06:45:33;;;;;;;6.85;2.38;;;29.50;91.30;;;;;;5042929;28;20033;-67
2022/03/20 06:48:00;;;;;;;11.70;3.83;;;29.20;91.50;;;;;;5041542;28;20029;-67
2022/03/20 06:50:27;;;;;;;7.03;2.20;;;29.20;92.10;;;;;;5041701;28;20466;-68
2022/03/20 06:52:54;;;;;;;8.52;2.58;;;29.30;92.10;;;;;;5041736;28;20030;-66
2022/03/20 06:55:22;;;;;;;9.13;3.20;;;29.30;92.70;;;;;;5039732;28;20111;-68
2022/03/20 06:57:49;;;;;;;7.95;2.70;;;29.40;91.90;;;;;;5041447;28;20031;-66
2022/03/20 07:00:16;;;;;;;6.50;2.40;;;29.40;92.10;;;;;;5040551;28;20028;-68
2022/03/20 07:02:43;;;;;;;6.90;2.50;;;29.00;93.00;;;;;;5039949;28;20025;-68
2022/03/20 07:05:11;;;;;;;7.20;2.40;;;28.80;93.60;;;;;;5040068;28;20036;-68
2022/03/20 07:07:40;;;;;;;7.28;2.28;;;29.10;92.60;;;;;;5039481;28;20032;-67
2022/03/20 07:10:08;;;;;;;8.77;2.97;;;29.30;92.40;;;;;;5039466;28;20029;-66
2022/03/20 07:12:35;;;;;;;9.85;2.33;;;29.30;92.80;;;;;;5040299;28;20013;-68
2022/03/20 07:15:02;;;;;;;6.60;2.30;;;29.20;92.60;;;;;;5038844;28;20020;-67
2022/03/20 07:17:29;;;;;;;6.60;2.97;;;29.00;93.30;;;;;;5039873;28;20087;-67
2022/03/20 07:19:58;;;;;;;9.48;3.38;;;28.80;93.10;;;;;;5038894;28;20269;-68
2022/03/20 07:22:26;;;;;;;7.03;2.53;;;28.70;94.30;;;;;;5040046;28;20033;-64
2022/03/20 07:24:54;;;;;;;10.98;2.67;;;28.70;93.50;;;;;;5037567;28;20029;-68
2022/03/20 07:30:07;;;;;;;6.93;2.20;;;28.40;93.90;;;;;;5040377;28;20593;-64
2022/03/20 07:32:35;;;;;;;10.50;3.15;;;28.10;94.30;;;;;;5038729;28;20021;-67
2022/03/20 07:35:02;;;;;;;7.45;2.60;;;28.10;94.70;;;;;;5041106;28;20462;-66
2022/03/20 07:37:29;;;;;;;8.48;2.80;;;27.80;95.20;;;;;;5039319;28;20025;-70
2022/03/20 07:39:56;;;;;;;9.20;3.05;;;27.60;96.00;;;;;;5039769;28;20452;-63
2022/03/20 07:42:26;;;;;;;10.73;2.22;;;27.40;96.00;;;;;;5040555;28;20025;-67
2022/03/20 07:44:53;;;;;;;6.53;2.40;;;26.80;97.00;;;;;;5039881;28;20048;-65
2022/03/20 07:47:22;;;;;;;7.88;2.47;;;26.20;98.00;;;;;;5038938;28;20025;-68
2022/03/20 07:49:50;;;;;;;9.43;2.45;;;25.50;99.50;;;;;;5038585;28;20027;-67
2022/03/20 07:52:22;;;;;;;7.30;2.35;;;24.90;99.90;;;;;;5040989;28;20059;-66
2022/03/20 07:54:49;;;;;;;11.87;2.57;;;24.50;99.90;;;;;;5040220;28;20114;-66
2022/03/20 07:57:16;;;;;;;7.05;2.10;;;24.00;99.90;;;;;;5040720;28;20575;-65
2022/03/20 07:59:44;;;;;;;8.55;2.58;;;23.60;99.90;;;;;;5039092;28;20029;-69
2022/03/20 08:02:12;;;;;;;7.45;2.33;;;23.30;99.90;;;;;;5039360;28;20519;-69
2022/03/20 08:04:40;;;;;;;6.93;2.35;;;23.10;99.90;;;;;;5039625;28;20718;-68
2022/03/20 08:07:07;;;;;;;9.38;2.30;;;23.00;99.90;;;;;;5040339;28;20074;-67
2022/03/20 08:09:34;;;;;;;10.32;2.55;;;23.00;99.90;;;;;;5040277;28;20091;-70
2022/03/20 08:12:01;;;;;;;6.32;2.50;;;22.90;99.90;;;;;;5042413;28;20021;-70
2022/03/20 08:14:29;;;;;;;7.90;2.20;;;22.90;99.90;;;;;;5040773;28;20123;-70
2022/03/20 08:16:56;;;;;;;6.32;2.00;;;22.80;99.90;;;;;;5043231;28;20108;-70
2022/03/20 08:19:24;;;;;;;6.15;1.98;;;22.70;99.90;;;;;;5043304;28;20079;-70
2022/03/20 08:21:52;;;;;;;7.25;2.78;;;22.60;99.90;;;;;;5046103;28;20049;-71
2022/03/20 08:24:19;;;;;;;7.18;2.15;;;22.60;99.90;;;;;;5043947;28;20040;-67
2022/03/20 08:26:47;;;;;;;5.85;2.20;;;22.40;99.90;;;;;;5044495;28;20570;-66
2022/03/20 08:29:14;;;;;;;6.13;2.20;;;22.40;99.90;;;;;;5044369;28;20021;-67
2022/03/20 08:31:47;;;;;;;7.03;2.17;;;22.30;99.90;;;;;;5045502;28;20017;-68
2022/03/20 08:34:15;;;;;;;7.18;2.05;;;22.20;99.90;;;;;;5044625;28;20487;-67
2022/03/20 08:36:45;;;;;;;6.75;2.72;;;22.20;99.90;;;;;;5045352;28;20117;-66
2022/03/20 08:39:13;;;;;;;8.70;3.00;;;22.10;99.90;;;;;;5026744;28;20458;-69
2022/03/20 08:41:43;;;;;;;7.15;2.53;;;22.10;99.90;;;;;;5046393;28;20379;-67
2022/03/20 08:44:10;;;;;;;10.50;2.67;;;22.00;99.90;;;;;;5043519;28;20426;-67
2022/03/20 08:46:37;;;;;;;8.10;2.47;;;22.00;99.90;;;;;;5048085;28;20111;-62
2022/03/20 08:49:06;;;;;;;7.10;2.22;;;21.90;99.90;;;;;;5044501;28;20021;-66
2022/03/20 08:51:34;;;;;;;10.60;2.45;;;21.90;99.90;;;;;;5024033;28;20364;-63
2022/03/20 08:54:02;;;;;;;9.43;2.38;;;21.80;99.90;;;;;;5047317;28;20017;-63
2022/03/20 08:56:29;;;;;;;11.80;2.53;;;21.90;99.90;;;;;;5045374;28;20025;-63
2022/03/20 08:58:57;;;;;;;7.57;2.55;;;21.80;99.90;;;;;;5044320;28;20037;-64
2022/03/20 09:01:24;;;;;;;7.43;1.45;;;21.80;99.90;;;;;;5045638;28;20035;-64
2022/03/20 09:03:52;;;;;;;10.68;2.30;;;21.80;99.90;;;;;;5043851;28;20527;-64
2022/03/20 09:06:23;;;;;;;8.18;1.80;;;21.70;99.90;;;;;;5042147;28;20041;-65
2022/03/20 09:08:51;;;;;;;7.18;2.90;;;21.80;99.90;;;;;;5049362;28;20061;-64
2022/03/20 09:11:19;;;;;;;6.65;1.98;;;21.80;99.90;;;;;;5043632;28;20384;-64
2022/03/20 09:13:46;;;;;;;9.10;2.35;;;21.70;99.90;;;;;;5050265;28;20112;-66
2022/03/20 09:19:03;;;;;;;5.38;2.22;;;21.60;99.90;;;;;;5042488;28;20601;-66
2022/03/20 09:21:35;;;;;;;4.22;1.70;;;21.50;99.90;;;;;;5043981;28;20048;-68
2022/03/20 09:24:03;;;;;;;5.18;1.83;;;21.40;99.90;;;;;;5043074;28;20060;-67
2022/03/20 09:26:31;;;;;;;9.10;2.20;;;21.30;99.90;;;;;;5043696;28;20033;-65
2022/03/20 09:28:58;;;;;;;8.75;2.35;;;21.30;99.90;;;;;;5045552;28;20028;-66
2022/03/20 09:31:27;;;;;;;9.43;2.13;;;21.30;99.90;;;;;;5036742;28;20035;-66
2022/03/20 09:33:54;;;;;;;9.25;2.00;;;21.30;99.90;;;;;;4693876;28;10000335;-68
2022/03/20 09:36:21;;;;;;;9.80;2.40;;;21.30;99.90;;;;;;4692764;28;9999980;-66
2022/03/20 09:38:48;;;;;;;4.00;1.75;;;21.20;99.90;;;;;;4690737;28;10000405;-65
2022/03/20 09:41:17;;;;;;;8.60;2.25;;;21.00;99.90;;;;;;5044229;28;20029;-66
2022/03/20 09:43:46;;;;;;;7.18;2.25;;;20.90;99.90;;;;;;5043213;28;20032;-69
2022/03/20 09:46:15;;;;;;;8.07;2.50;;;20.80;99.90;;;;;;5046112;28;20596;-66
2022/03/20 09:48:44;;;;;;;8.20;2.60;;;20.60;99.90;;;;;;5046878;28;20017;-66
2022/03/20 09:51:11;;;;;;;6.15;2.30;;;20.60;99.90;;;;;;5043483;28;20044;-67
2022/03/20 09:53:38;;;;;;;7.65;1.92;;;20.80;99.90;;;;;;5043159;28;20077;-69
2022/03/20 09:56:09;;;;;;;6.50;2.10;;;20.80;99.90;;;;;;5041931;28;20029;-67
2022/03/20 09:58:36;;;;;;;5.38;2.25;;;20.60;99.90;;;;;;5042822;28;20064;-67
2022/03/20 10:01:03;;;;;;;6.97;2.92;;;20.50;99.90;;;;;;5041783;28;20021;-66
2022/03/20 10:03:30;;;;;;;5.88;2.72;;;20.30;99.90;;;;;;5041688;28;20040;-69
2022/03/20 10:06:09;;;;;;;10.30;2.60;;;20.10;99.90;;;;;;5043750;28;20102;-65
2022/03/20 10:08:36;;;;;;;7.50;2.72;;;20.00;99.90;;;;;;5041226;28;20025;-70
2022/03/20 10:11:17;;;;;;;7.82;2.95;;;20.00;99.90;;;;;;5041145;28;20499;-70
2022/03/20 10:14:09;;;;;;;7.93;3.00;;;19.90;99.90;;;;;;5044545;28;20032;-71
2022/03/20 10:17:00;;;;;;;10.50;4.50;;;19.80;99.90;;;;;;5044460;28;20028;-69
2022/03/20 10:19:28;;;;;;;7.07;2.50;;;19.80;99.90;;;;;;4965426;28;20047;-68
2022/03/20 10:21:58;;;;;;;7.53;3.28;;;19.80;99.90;;;;;;4983783;28;20428;-70
2022/03/20 10:24:27;;;;;;;14.30;7.65;;;19.90;99.90;;;;;;4980973;28;20149;-69
2022/03/20 10:27:00;;;;;;;14.23;6.20;;;19.70;99.90;;;;;;4975797;28;20038;-66
2022/03/20 10:29:29;;;;;;;11.65;4.88;;;19.70;99.90;;;;;;4980941;28;20583;-67
2022/03/20 10:31:59;;;;;;;12.80;4.13;;;19.60;99.90;;;;;;4985065;28;20031;-69
2022/03/20 10:34:26;;;;;;;8.35;4.40;;;19.70;99.90;;;;;;4977161;28;20034;-65
2022/03/20 10:36:53;;;;;;;9.73;2.97;;;19.70;99.90;;;;;;5001826;22;20132;-67
2022/03/20 10:39:22;;;;;;;11.98;2.88;;;19.70;99.90;;;;;;5018234;28;20117;-65
2022/03/20 10:41:57;;;;;;;10.00;3.95;;;19.60;99.90;;;;;;5019156;28;20574;-65
2022/03/20 10:44:27;;;;;;;7.20;3.20;;;19.50;99.90;;;;;;5023564;28;20380;-65
2022/03/20 10:46:57;;;;;;;7.60;2.95;;;19.40;99.90;;;;;;5021690;28;20065;-63
2022/03/20 10:49:25;;;;;;;9.68;2.90;;;19.30;99.90;;;;;;5015897;28;20500;-63
2022/03/20 10:52:06;;;;;;;9.80;3.10;;;19.30;99.90;;;;;;5022053;28;20028;-65
2022/03/20 10:54:41;;;;;;;9.93;2.55;;;19.20;99.90;;;;;;5021638;28;20375;-64
2022/03/20 10:57:09;;;;;;;12.55;4.07;;;19.10;99.90;;;;;;5021734;28;20029;-67
2022/03/20 10:59:36;;;;;;;10.95;3.47;;;19.00;99.90;;;;;;5023353;28;20496;-66
2022/03/20 11:02:08;;;;;;;10.27;3.50;;;18.90;99.90;;;;;;5020587;28;20080;-67
2022/03/20 11:04:35;;;;;;;10.85;3.20;;;18.90;99.90;;;;;;5016507;28;20037;-68
2022/03/20 11:07:07;;;;;;;10.32;2.92;;;18.80;99.90;;;;;;5021523;28;20476;-66
2022/03/20 11:09:34;;;;;;;9.25;3.03;;;18.90;99.90;;;;;;5015264;28;20124;-64
2022/03/20 11:12:06;;;;;;;9.85;3.35;;;18.80;99.90;;;;;;5016643;28;20109;-66
2022/03/20 11:14:36;;;;;;;11.38;3.10;;;18.80;99.90;;;;;;5017869;28;20514;-64
2022/03/20 11:17:07;;;;;;;8.68;3.30;;;18.80;99.90;;;;;;5019935;28;20037;-68
2022/03/20 11:19:35;;;;;;;10.80;3.80;;;18.80;99.90;;;;;;5019993;28;20029;-67
2022/03/20 11:22:06;;;;;;;8.65;3.50;;;18.80;99.90;;;;;;5021849;28;20471;-69
2022/03/20 11:24:35;;;;;;;9.52;3.85;;;18.80;99.90;;;;;;5019493;28;20099;-63
2022/03/20 11:27:05;;;;;;;9.05;3.13;;;18.70;99.90;;;;;;5021491;28;20021;-63
2022/03/20 11:29:47;;;;;;;12.35;4.20;;;18.80;99.90;;;;;;5021682;28;20084;-66
2022/03/20 11:32:16;;;;;;;9.43;2.88;;;18.80;99.90;;;;;;5018795;28;20022;-64
2022/03/20 11:34:46;;;;;;;12.93;3.20;;;18.70;99.90;;;;;;5022019;28;20022;-69
2022/03/20 11:37:15;;;;;;;10.25;3.10;;;18.70;99.90;;;;;;5017978;28;20037;-69
2022/03/20 11:40:08;;;;;;;10.45;3.45;;;18.70;99.90;;;;;;5025197;28;20437;-64
2022/03/20 11:42:35;;;;;;;5.80;2.88;;;18.70;99.90;;;;;;5018252;28;20018;-64
2022/03/20 11:45:05;;;;;;;7.80;3.78;;;18.60;99.90;;;;;;5019991;28;20061;-66
2022/03/20 11:47:33;;;;;;;8.27;3.25;;;18.60;99.90;;;;;;5018209;28;20476;-67
2022/03/20 11:50:25;;;;;;;7.05;2.78;;;18.60;99.90;;;;;;5018696;28;21322;-67
2022/03/20 11:53:00;;;;;;;8.45;3.10;;;18.50;99.90;;;;;;5017135;28;20021;-64
2022/03/20 11:55:29;;;;;;;11.60;3.63;;;18.40;99.90;;;;;;5018444;28;20594;-65
2022/03/20 11:57:58;;;;;;;6.03;3.33;;;18.30;99.90;;;;;;5011546;28;20022;-64
2022/03/20 12:00:27;;;;;;;8.75;3.22;;;18.20;99.90;;;;;;4996886;28;20113;-67
2022/03/20 12:03:16;;;;;;;6.10;3.13;;;18.20;99.90;;;;;;5015463;28;20492;-70
2022/03/20 12:05:43;;;;;;;9.93;3.40;;;18.10;99.90;;;;;;5010866;28;20033;-65
2022/03/20 12:08:42;;;;;;;11.10;3.80;;;18.00;99.90;;;;;;5012804;28;20323;-64
2022/03/20 12:11:43;;;;;;;8.48;3.03;;;18.00;99.90;;;;;;4923722;29;20482;-63
2022/03/20 12:14:38;;;;;;;11.60;3.63;;;17.90;99.90;;;;;;4923320;29;20031;-69
2022/03/20 12:17:10;;;;;;;14.65;3.50;;;18.00;99.90;;;;;;4921559;29;20050;-65
2022/03/20 12:19:41;;;;;;;8.55;3.50;;;18.10;99.90;;;;;;4930131;29;20039;-63
2022/03/20 12:22:18;;;;;;;6.53;3.50;;;18.00;99.90;;;;;;4930470;29;20080;-67
2022/03/20 12:25:05;;;;;;;9.10;4.15;;;17.90;99.90;;;;;;4934602;29;20042;-65
2022/03/20 12:27:34;;;;;;;8.50;4.03;;;17.90;99.90;;;;;;4933465;29;20494;-69
2022/03/20 12:30:16;;;;;;;9.90;4.30;;;17.90;99.90;;;;;;4924196;29;20479;-68
2022/03/20 12:32:48;;;;;;;12.82;4.18;;;18.00;99.90;;;;;;4924656;29;20028;-67
2022/03/20 12:35:15;;;;;;;;;;;17.90;99.90;;;;;;4924088;29;20056;-67
2022/03/20 12:37:48;;;;;;;8.05;3.90;;;17.90;99.90;;;;;;4928387;29;20223;-66
2022/03/20 12:40:35;;;;;;;8.68;4.70;;;17.80;99.90;;;;;;4924312;29;20064;-64
2022/03/20 12:43:13;;;;;;;9.35;4.22;;;17.80;99.90;;;;;;4920393;29;20222;-67
2022/03/20 12:45:55;;;;;;;12.73;3.72;;;17.80;99.90;;;;;;4923885;29;20490;-67
2022/03/20 12:48:22;;;;;;;9.32;4.13;;;18.00;99.90;;;;;;4989077;28;20129;-65
2022/03/20 12:50:55;;;;;;;13.07;5.05;;;18.00;99.90;;;;;;5020612;28;20078;-63
2022/03/20 12:53:24;;;;;;;9.88;4.10;;;18.10;99.90;;;;;;5019289;28;20026;-69
2022/03/20 12:55:59;;;;;;;11.73;4.63;;;18.10;99.90;;;;;;5015092;28;20065;-69
2022/03/20 12:58:28;;;;;;;13.30;5.18;;;18.10;99.90;;;;;;5019564;28;20041;-68
2022/03/20 13:00:58;;;;;;;13.55;4.80;;;18.00;99.90;;;;;;5017504;28;20036;-70
2022/03/20 13:03:26;;;;;;;10.82;4.80;;;18.10;99.90;;;;;;5024884;28;20545;-70
2022/03/20 13:05:58;;;;;;;11.73;6.28;;;18.00;99.90;;;;;;5017383;28;20029;-70
2022/03/20 13:08:33;;;;;;;12.35;5.47;;;18.00;99.90;;;;;;5020875;28;20416;-69
2022/03/20 13:11:04;;;;;;;13.63;5.13;;;17.90;99.90;;;;;;5018302;28;20030;-67
2022/03/20 13:13:36;;;;;;;13.02;5.03;;;18.00;99.90;;;;;;5019458;28;20553;-63
2022/03/20 13:16:05;;;;;;;11.45;5.07;;;18.00;99.90;;;;;;5018187;28;20402;-66
2022/03/20 13:18:35;;;;;;;12.23;5.03;;;18.00;99.90;;;;;;5018409;28;20481;-66
2022/03/20 13:21:07;;;;;;;9.95;5.00;;;18.10;99.90;;;;;;5019520;28;20056;-67
2022/03/20 13:23:35;;;;;;;14.98;5.65;;;18.10;99.90;;;;;;5020177;28;20037;-63
2022/03/20 13:26:02;;;;;;;10.07;4.45;;;18.10;99.90;;;;;;5025565;28;20030;-63
2022/03/20 13:28:33;;;;;;;13.23;5.20;;;18.00;99.90;;;;;;5021475;28;20061;-63